createdAt,value
2018-12-27T00:02:04.093Z,101927.61
2018-12-27T00:04:32.333Z,101930.45
2018-12-27T00:07:00.567Z,101930.45
2018-12-27T00:09:28.778Z,101931.34
2018-12-27T00:11:56.998Z,101929.58
2018-12-27T00:14:25.201Z,101927.50
2018-12-27T00:16:53.419Z,101928.34
2018-12-27T00:19:21.703Z,101919.92
2018-12-27T00:21:49.918Z,101920.41
2018-12-27T00:24:18.162Z,101916.72
2018-12-27T00:26:46.371Z,101914.83
2018-12-27T00:29:14.601Z,101915.47
2018-12-27T00:31:43.117Z,101913.98
2018-12-27T00:34:11.703Z,101906.66
2018-12-27T00:36:40.246Z,101898.99
2018-12-27T00:39:08.828Z,101896.39
2018-12-27T00:41:37.372Z,101891.78
2018-12-27T00:44:07.615Z,101886.85
2018-12-27T00:46:36.174Z,101888.34
2018-12-27T00:49:04.745Z,101883.86
2018-12-27T00:51:33.275Z,101893.80
2018-12-27T00:54:01.847Z,101887.94
2018-12-27T00:56:30.404Z,101884.73
2018-12-27T00:58:58.951Z,101887.10
2018-12-27T01:01:27.508Z,101886.58
2018-12-27T01:03:56.047Z,101881.77
2018-12-27T01:06:24.603Z,101876.80
2018-12-27T01:08:53.149Z,101884.98
2018-12-27T01:11:21.719Z,101890.92
2018-12-27T01:13:50.260Z,101890.08
2018-12-27T01:16:18.830Z,101888.59
2018-12-27T01:18:47.383Z,101877.81
2018-12-27T01:21:15.943Z,101874.95
2018-12-27T01:23:44.490Z,101867.27
2018-12-27T01:26:13.025Z,101864.66
2018-12-27T01:28:41.600Z,101857.84
2018-12-27T01:31:10.140Z,101863.30
2018-12-27T01:33:38.669Z,101866.52
2018-12-27T01:36:07.230Z,101872.97
2018-12-27T01:38:35.813Z,101865.27
2018-12-27T01:41:04.361Z,101862.55
2018-12-27T01:43:32.925Z,101858.85
2018-12-27T01:46:01.493Z,101858.09
2018-12-27T01:48:30.063Z,101859.82
2018-12-27T01:50:58.632Z,101857.22
2018-12-27T01:53:27.172Z,101858.70
2018-12-27T01:55:55.736Z,101857.73
2018-12-27T01:58:24.299Z,101857.73
2018-12-27T02:00:52.869Z,101854.62
2018-12-27T02:03:26.483Z,101855.02
2018-12-27T02:05:51.695Z,101851.89
2018-12-27T02:08:20.250Z,101856.38
2018-12-27T02:10:48.776Z,101851.77
2018-12-27T02:13:17.343Z,101855.98
2018-12-27T02:15:45.882Z,101860.20
2018-12-27T02:18:14.454Z,101855.98
2018-12-27T02:20:42.992Z,101859.19
2018-12-27T02:23:11.552Z,101861.08
2018-12-27T02:25:40.098Z,101862.80
2018-12-27T02:28:08.646Z,101860.07
2018-12-27T02:30:37.215Z,101856.98
2018-12-27T02:33:05.750Z,101862.04
2018-12-27T02:35:34.306Z,101859.83
2018-12-27T02:38:02.870Z,101864.89
2018-12-27T02:40:31.404Z,101859.56
2018-12-27T02:42:59.962Z,101856.35
2018-12-27T02:45:28.513Z,101854.98
2018-12-27T02:47:57.068Z,101856.72
2018-12-27T02:50:25.615Z,101855.35
2018-12-27T02:52:54.145Z,101853.63
2018-12-27T02:55:22.712Z,101847.69
2018-12-27T02:57:51.256Z,101848.17
2018-12-27T03:00:19.830Z,101842.24
2018-12-27T03:02:48.358Z,101836.80
2018-12-27T03:05:16.908Z,101839.12
2018-12-27T03:07:45.462Z,101839.52
2018-12-27T03:10:14.025Z,101848.30
2018-12-27T03:12:42.568Z,101841.00
2018-12-27T03:15:11.123Z,101837.53
2018-12-27T03:17:39.669Z,101826.27
2018-12-27T03:20:08.197Z,101823.54
2018-12-27T03:22:36.729Z,101817.57
2018-12-27T03:25:05.285Z,101811.77
2018-12-27T03:27:33.806Z,101807.31
2018-12-27T03:30:02.385Z,101796.77
2018-12-27T03:32:30.901Z,101790.45
2018-12-27T03:34:59.451Z,101785.87
2018-12-27T03:37:28.026Z,101788.23
2018-12-27T03:39:56.586Z,101780.42
2018-12-27T03:42:25.142Z,101783.15
2018-12-27T03:44:53.708Z,101779.55
2018-12-27T03:47:22.236Z,101768.16
2018-12-27T03:49:50.800Z,101769.88
2018-12-27T03:52:19.443Z,101772.61
2018-12-27T03:54:47.974Z,101773.61
2018-12-27T03:57:16.522Z,101778.45
2018-12-27T03:59:45.087Z,101784.74
2018-12-27T04:02:13.623Z,101777.32
2018-12-27T04:04:42.192Z,101776.96
2018-12-27T04:07:10.715Z,101770.15
2018-12-27T04:09:39.271Z,101770.99
2018-12-27T04:12:07.831Z,101765.06
2018-12-27T04:14:36.388Z,101764.31
2018-12-27T04:17:04.588Z,101756.00
2018-12-27T04:19:32.809Z,101749.59
2018-12-27T04:22:01.010Z,101755.39
2018-12-27T04:24:29.290Z,101743.13
2018-12-27T04:26:57.488Z,101743.61
2018-12-27T04:29:25.713Z,101744.49
2018-12-27T04:31:54.470Z,101749.95
2018-12-27T04:34:23.042Z,101744.49
2018-12-27T04:36:51.527Z,101747.70
2018-12-27T04:39:19.743Z,101747.58
2018-12-27T04:41:48.138Z,101742.25
2018-12-27T04:44:16.341Z,101734.47
2018-12-27T04:46:44.570Z,101733.11
2018-12-27T04:49:12.768Z,101724.05
2018-12-27T04:51:40.976Z,101724.93
2018-12-27T04:54:09.170Z,101722.56
2018-12-27T04:56:37.384Z,101732.59
2018-12-27T04:59:05.576Z,101742.13
2018-12-27T05:01:33.815Z,101752.05
2018-12-27T05:04:02.018Z,101756.14
2018-12-27T05:06:30.241Z,101757.12
2018-12-27T05:08:58.435Z,101754.27
2018-12-27T05:11:26.635Z,101758.87
2018-12-27T05:13:54.873Z,101757.87
2018-12-27T05:16:23.066Z,101758.48
2018-12-27T05:18:51.276Z,101764.32
2018-12-27T05:21:19.484Z,101766.05
2018-12-27T05:23:47.691Z,101759.71
2018-12-27T05:26:15.898Z,101764.20
2018-12-27T05:28:44.088Z,101766.92
2018-12-27T05:31:12.328Z,101765.56
2018-12-27T05:33:40.552Z,101769.16
2018-12-27T05:36:08.773Z,101771.49
2018-12-27T05:38:36.962Z,101770.13
2018-12-27T05:41:05.185Z,101763.70
2018-12-27T05:43:33.388Z,101768.28
2018-12-27T05:46:01.614Z,101762.83
2018-12-27T05:48:29.814Z,101757.38
2018-12-27T05:50:58.050Z,101754.17
2018-12-27T05:53:26.267Z,101757.38
2018-12-27T05:55:54.500Z,101757.38
2018-12-27T05:58:22.708Z,101767.80
2018-12-27T06:00:50.932Z,101763.31
2018-12-27T06:03:19.155Z,101762.44
2018-12-27T06:05:47.369Z,101761.47
2018-12-27T06:08:15.557Z,101760.98
2018-12-27T06:10:43.789Z,101757.87
2018-12-27T06:13:11.973Z,101755.53
2018-12-27T06:15:40.194Z,101752.29
2018-12-27T06:18:08.396Z,101748.72
2018-12-27T06:20:36.628Z,101746.09
2018-12-27T06:23:04.834Z,101755.02
2018-12-27T06:25:33.069Z,101751.93
2018-12-27T06:28:01.270Z,101745.99
2018-12-27T06:30:29.488Z,101752.80
2018-12-27T06:32:57.694Z,101753.66
2018-12-27T06:35:25.922Z,101754.53
2018-12-27T06:37:54.114Z,101746.48
2018-12-27T06:40:22.332Z,101746.48
2018-12-27T06:42:50.544Z,101750.08
2018-12-27T06:45:18.762Z,101747.84
2018-12-27T06:47:46.988Z,101751.45
2018-12-27T06:50:15.176Z,101749.20
2018-12-27T06:52:43.374Z,101742.52
2018-12-27T06:55:11.595Z,101746.09
2018-12-27T06:57:39.877Z,101745.60
2018-12-27T07:00:08.362Z,101746.97
2018-12-27T07:02:36.568Z,101747.36
2018-12-27T07:05:05.179Z,101746.48
2018-12-27T07:07:33.481Z,101744.63
2018-12-27T07:10:01.695Z,101742.88
2018-12-27T07:12:29.909Z,101743.27
2018-12-27T07:14:58.109Z,101738.66
2018-12-27T07:17:26.327Z,101736.06
2018-12-27T07:19:54.542Z,101741.91
2018-12-27T07:22:22.780Z,101750.08
2018-12-27T07:24:50.974Z,101750.57
2018-12-27T07:27:19.188Z,101748.81
2018-12-27T07:29:47.406Z,101746.97
2018-12-27T07:32:15.628Z,101747.84
2018-12-27T07:34:43.834Z,101744.63
2018-12-27T07:37:12.068Z,101742.75
2018-12-27T07:39:40.269Z,101745.99
2018-12-27T07:42:08.485Z,101742.00
2018-12-27T07:44:36.676Z,101746.48
2018-12-27T07:47:05.734Z,101746.61
2018-12-27T07:49:34.126Z,101745.12
2018-12-27T07:52:02.302Z,101752.41
2018-12-27T07:54:30.537Z,101755.53
2018-12-27T07:56:58.770Z,101743.88
2018-12-27T07:59:26.974Z,101747.84
2018-12-27T08:01:55.219Z,101749.56
2018-12-27T08:04:23.428Z,101751.45
2018-12-27T08:06:51.657Z,101754.17
2018-12-27T08:09:19.866Z,101751.93
2018-12-27T08:11:48.069Z,101747.84
2018-12-27T08:14:16.305Z,101754.53
2018-12-27T08:16:44.499Z,101752.80
2018-12-27T08:19:12.730Z,101748.33
2018-12-27T08:21:40.948Z,101748.72
2018-12-27T08:24:09.179Z,101754.66
2018-12-27T08:26:37.420Z,101752.80
2018-12-27T08:29:05.643Z,101751.45
2018-12-27T08:31:33.872Z,101751.05
2018-12-27T08:34:02.094Z,101741.91
2018-12-27T08:36:30.315Z,101750.08
2018-12-27T08:38:58.542Z,101752.41
2018-12-27T08:41:26.745Z,101756.38
2018-12-27T08:43:54.977Z,101753.66
2018-12-27T08:46:23.186Z,101751.45
2018-12-27T08:48:51.419Z,101755.02
2018-12-27T08:51:19.620Z,101752.29
2018-12-27T08:53:47.837Z,101754.05
2018-12-27T08:56:16.066Z,101754.17
2018-12-27T08:58:44.287Z,101751.45
2018-12-27T09:01:12.585Z,101757.25
2018-12-27T09:03:40.826Z,101757.25
2018-12-27T09:06:09.018Z,101757.25
2018-12-27T09:08:37.236Z,101757.25
2018-12-27T09:11:05.465Z,101755.53
2018-12-27T09:13:33.693Z,101752.80
2018-12-27T09:16:01.891Z,101752.80
2018-12-27T09:18:30.123Z,101756.98
2018-12-27T09:20:58.335Z,101752.05
2018-12-27T09:23:26.589Z,101757.51
2018-12-27T09:25:54.779Z,101752.90
2018-12-27T09:28:23.001Z,101754.17
2018-12-27T09:30:51.221Z,101761.59
2018-12-27T09:33:19.426Z,101756.50
2018-12-27T09:35:47.664Z,101752.05
2018-12-27T09:38:15.865Z,101752.41
2018-12-27T09:40:44.067Z,101750.70
2018-12-27T09:43:11.650Z,101756.14
2018-12-27T09:45:39.191Z,101759.35
2018-12-27T09:48:06.700Z,101755.63
2018-12-27T09:50:34.917Z,101753.78
2018-12-27T09:53:03.105Z,101754.27
2018-12-27T09:55:31.329Z,101753.78
2018-12-27T09:57:58.902Z,101747.84
2018-12-27T10:00:26.433Z,101743.27
2018-12-27T10:02:53.955Z,101737.91
2018-12-27T10:05:21.497Z,101738.30
2018-12-27T10:07:48.993Z,101742.52
2018-12-27T10:10:16.533Z,101732.98
2018-12-27T10:12:44.038Z,101736.06
2018-12-27T10:15:11.571Z,101726.66
2018-12-27T10:17:39.085Z,101733.95
2018-12-27T10:20:06.889Z,101734.83
2018-12-27T10:22:35.486Z,101739.80
2018-12-27T10:25:03.233Z,101736.06
2018-12-27T10:27:30.824Z,101740.64
2018-12-27T10:29:58.343Z,101736.06
2018-12-27T10:32:25.867Z,101740.16
2018-12-27T10:34:53.399Z,101733.47
2018-12-27T10:37:20.945Z,101727.53
2018-12-27T10:39:48.447Z,101728.37
2018-12-27T10:42:15.990Z,101721.20
2018-12-27T10:44:43.487Z,101728.37
2018-12-27T10:47:11.013Z,101721.20
2018-12-27T10:49:38.595Z,101721.69
2018-12-27T10:52:06.103Z,101715.27
2018-12-27T10:54:33.626Z,101712.54
2018-12-27T10:57:01.139Z,101705.34
2018-12-27T10:59:28.647Z,101696.19
2018-12-27T11:01:56.188Z,101684.89
2018-12-27T11:04:23.697Z,101681.33
2018-12-27T11:06:51.194Z,101680.32
2018-12-27T11:09:18.732Z,101680.45
2018-12-27T11:11:46.221Z,101676.36
2018-12-27T11:14:13.756Z,101669.06
2018-12-27T11:16:41.265Z,101675.36
2018-12-27T11:19:08.787Z,101665.46
2018-12-27T11:21:36.315Z,101662.25
2018-12-27T11:24:03.863Z,101666.34
2018-12-27T11:26:31.371Z,101668.55
2018-12-27T11:28:58.873Z,101664.09
2018-12-27T11:31:26.414Z,101657.64
2018-12-27T11:33:53.940Z,101652.19
2018-12-27T11:36:21.467Z,101661.73
2018-12-27T11:38:49.021Z,101655.31
2018-12-27T11:41:16.561Z,101646.74
2018-12-27T11:43:44.063Z,101638.56
2018-12-27T11:46:11.623Z,101629.55
2018-12-27T11:48:39.131Z,101629.03
2018-12-27T11:51:06.677Z,101629.03
2018-12-27T11:53:34.233Z,101623.58
2018-12-27T11:56:01.755Z,101620.86
2018-12-27T11:58:29.282Z,101621.86
2018-12-27T12:00:56.833Z,101615.41
2018-12-27T12:03:24.411Z,101614.05
2018-12-27T12:05:51.976Z,101609.11
2018-12-27T12:08:19.523Z,101608.59
2018-12-27T12:10:47.026Z,101605.02
2018-12-27T12:13:14.575Z,101609.11
2018-12-27T12:15:42.060Z,101606.25
2018-12-27T12:18:09.770Z,101605.02
2018-12-27T12:20:37.263Z,101606.52
2018-12-27T12:23:04.787Z,101605.51
2018-12-27T12:25:32.943Z,101597.33
2018-12-27T12:28:01.177Z,101600.06
2018-12-27T12:30:29.416Z,101602.91
2018-12-27T12:32:57.614Z,101599.70
2018-12-27T12:35:25.878Z,101594.61
2018-12-27T12:37:54.079Z,101595.97
2018-12-27T12:40:22.303Z,101595.48
2018-12-27T12:42:50.500Z,101589.16
2018-12-27T12:45:18.724Z,101580.23
2018-12-27T12:47:46.933Z,101581.47
2018-12-27T12:50:15.138Z,101576.02
2018-12-27T12:52:43.359Z,101576.54
2018-12-27T12:55:11.588Z,101576.54
2018-12-27T12:57:39.809Z,101578.74
2018-12-27T13:00:09.663Z,101573.30
2018-12-27T13:02:37.875Z,101576.54
2018-12-27T13:05:06.358Z,101575.53
2018-12-27T13:07:35.695Z,101567.98
2018-12-27T13:10:04.627Z,101570.56
2018-12-27T13:12:32.832Z,101574.66
2018-12-27T13:15:01.136Z,101572.45
2018-12-27T13:17:29.334Z,101574.43
2018-12-27T13:19:57.577Z,101574.30
2018-12-27T13:22:25.792Z,101566.25
2018-12-27T13:24:54.021Z,101563.89
2018-12-27T13:27:22.233Z,101566.61
2018-12-27T13:29:50.457Z,101571.58
2018-12-27T13:32:18.657Z,101565.25
2018-12-27T13:34:46.863Z,101568.85
2018-12-27T13:37:15.073Z,101571.09
2018-12-27T13:39:43.292Z,101569.73
2018-12-27T13:42:11.503Z,101565.25
2018-12-27T13:44:39.723Z,101559.80
2018-12-27T13:47:07.954Z,101559.80
2018-12-27T13:49:36.182Z,101561.55
2018-12-27T13:52:04.423Z,101554.73
2018-12-27T13:54:32.625Z,101550.66
2018-12-27T13:57:01.716Z,101555.71
2018-12-27T13:59:29.914Z,101557.95
2018-12-27T14:01:58.142Z,101555.22
2018-12-27T14:04:26.331Z,101553.86
2018-12-27T14:06:54.565Z,101551.49
2018-12-27T14:09:22.759Z,101551.14
2018-12-27T14:11:50.997Z,101548.77
2018-12-27T14:14:19.191Z,101547.92
2018-12-27T14:16:49.039Z,101548.28
2018-12-27T14:19:17.263Z,101536.51
2018-12-27T14:21:45.465Z,101543.32
2018-12-27T14:24:13.703Z,101531.58
2018-12-27T14:26:41.906Z,101537.03
2018-12-27T14:29:10.137Z,101533.55
2018-12-27T14:31:38.347Z,101537.52
2018-12-27T14:34:06.555Z,101536.64
2018-12-27T14:36:39.724Z,101539.36
2018-12-27T14:39:06.575Z,101535.66
2018-12-27T14:41:34.781Z,101537.03
2018-12-27T14:44:03.017Z,101541.11
2018-12-27T14:46:31.242Z,101538.74
2018-12-27T14:48:59.436Z,101538.00
2018-12-27T14:51:27.672Z,101539.75
2018-12-27T14:53:55.861Z,101546.56
2018-12-27T14:56:24.094Z,101546.30
2018-12-27T14:58:52.291Z,101547.18
2018-12-27T15:01:20.509Z,101547.67
2018-12-27T15:03:48.713Z,101550.39
2018-12-27T15:06:16.943Z,101551.53
2018-12-27T15:08:45.140Z,101558.08
2018-12-27T15:11:14.295Z,101558.08
2018-12-27T15:13:42.640Z,101560.32
2018-12-27T15:16:10.850Z,101548.05
2018-12-27T15:18:39.046Z,101548.55
2018-12-27T15:21:07.259Z,101546.83
2018-12-27T15:23:35.461Z,101552.14
2018-12-27T15:26:03.698Z,101549.03
2018-12-27T15:28:31.924Z,101547.67
2018-12-27T15:31:00.144Z,101546.17
2018-12-27T15:33:28.359Z,101542.70
2018-12-27T15:35:56.588Z,101545.68
2018-12-27T15:38:24.835Z,101539.09
2018-12-27T15:40:53.027Z,101547.49
2018-12-27T15:43:21.254Z,101549.11
2018-12-27T15:45:49.486Z,101547.75
2018-12-27T15:48:17.675Z,101549.95
2018-12-27T15:50:45.896Z,101549.33
2018-12-27T15:53:14.142Z,101544.89
2018-12-27T15:55:42.376Z,101548.41
2018-12-27T15:58:10.560Z,101546.78
2018-12-27T16:00:38.792Z,101552.67
2018-12-27T16:03:07.012Z,101553.91
2018-12-27T16:05:35.220Z,101553.29
2018-12-27T16:08:03.519Z,101558.97
2018-12-27T16:10:31.766Z,101562.08
2018-12-27T16:12:59.978Z,101556.98
2018-12-27T16:15:28.200Z,101555.62
2018-12-27T16:17:55.770Z,101553.28
2018-12-27T16:20:23.297Z,101559.58
2018-12-27T16:22:50.846Z,101557.23
2018-12-27T16:25:18.402Z,101558.83
2018-12-27T16:27:45.930Z,101562.42
2018-12-27T16:30:14.096Z,101567.36
2018-12-27T16:32:42.320Z,101562.03
2018-12-27T16:35:10.565Z,101564.36
2018-12-27T16:37:38.760Z,101557.19
2018-12-27T16:40:08.341Z,101552.84
2018-12-27T16:42:36.551Z,101558.64
2018-12-27T16:45:05.424Z,101557.15
2018-12-27T16:47:33.626Z,101552.92
2018-12-27T16:50:01.831Z,101544.39
2018-12-27T16:52:30.071Z,101549.70
2018-12-27T16:54:58.282Z,101547.34
2018-12-27T16:57:26.542Z,101549.58
2018-12-27T16:59:54.754Z,101550.80
2018-12-27T17:02:22.986Z,101554.77
2018-12-27T17:04:51.218Z,101556.52
2018-12-27T17:07:19.420Z,101551.91
2018-12-27T17:09:47.664Z,101558.59
2018-12-27T17:12:15.899Z,101557.74
2018-12-27T17:14:43.444Z,101555.86
2018-12-27T17:17:10.971Z,101565.79
2018-12-27T17:19:38.498Z,101563.06
2018-12-27T17:22:06.648Z,101554.88
2018-12-27T17:24:34.876Z,101558.59
2018-12-27T17:27:03.080Z,101566.50
2018-12-27T17:29:31.311Z,101563.41
2018-12-27T17:31:59.514Z,101563.77
2018-12-27T17:34:27.749Z,101562.80
2018-12-27T17:36:56.000Z,101568.25
2018-12-27T17:39:24.196Z,101566.36
2018-12-27T17:41:52.491Z,101564.52
2018-12-27T17:44:20.698Z,101561.78
2018-12-27T17:46:48.935Z,101561.30
2018-12-27T17:49:17.144Z,101563.02
2018-12-27T17:51:45.375Z,101557.91
2018-12-27T17:54:13.592Z,101556.94
2018-12-27T17:56:41.783Z,101562.26
2018-12-27T17:59:10.016Z,101563.23
2018-12-27T18:01:38.220Z,101568.69
2018-12-27T18:04:06.428Z,101564.11
2018-12-27T18:06:34.647Z,101566.70
2018-12-27T18:09:04.329Z,101566.22
2018-12-27T18:11:32.542Z,101562.61
2018-12-27T18:14:00.743Z,101566.22
2018-12-27T18:16:28.969Z,101573.25
2018-12-27T18:18:57.202Z,101570.30
2018-12-27T18:21:25.428Z,101571.02
2018-12-27T18:23:53.655Z,101565.56
2018-12-27T18:26:21.884Z,101570.91
2018-12-27T18:28:50.120Z,101567.80
2018-12-27T18:31:18.326Z,101571.75
2018-12-27T18:33:46.542Z,101574.48
2018-12-27T18:36:14.745Z,101575.36
2018-12-27T18:38:42.978Z,101579.45
2018-12-27T18:41:11.188Z,101584.41
2018-12-27T18:43:39.398Z,101581.55
2018-12-27T18:46:07.642Z,101573.37
2018-12-27T18:48:35.250Z,101574.11
2018-12-27T18:51:03.442Z,101585.02
2018-12-27T18:53:31.668Z,101593.31
2018-12-27T18:55:59.264Z,101584.53
2018-12-27T18:58:26.770Z,101584.53
2018-12-27T19:00:54.948Z,101581.81
2018-12-27T19:03:22.541Z,101592.72
2018-12-27T19:05:50.070Z,101584.40
2018-12-27T19:08:18.255Z,101595.31
2018-12-27T19:10:51.756Z,101588.49
2018-12-27T19:13:19.656Z,101578.32
2018-12-27T19:15:49.058Z,101580.17
2018-12-27T19:18:23.517Z,101573.84
2018-12-27T19:20:54.488Z,101571.12
2018-12-27T19:23:23.151Z,101579.30
2018-12-27T19:25:51.382Z,101593.45
2018-12-27T19:28:19.622Z,101588.84
2018-12-27T19:30:47.826Z,101596.05
2018-12-27T19:33:16.070Z,101599.13
2018-12-27T19:35:44.324Z,101596.41
2018-12-27T19:38:12.533Z,101595.92
2018-12-27T19:40:40.734Z,101599.48
2018-12-27T19:43:08.978Z,101600.85
2018-12-27T19:45:37.205Z,101593.19
2018-12-27T19:48:05.445Z,101587.75
2018-12-27T19:50:33.669Z,101606.95
2018-12-27T19:53:01.890Z,101602.50
2018-12-27T19:55:30.090Z,101600.53
2018-12-27T19:57:58.317Z,101587.91
2018-12-27T20:00:26.537Z,101587.16
2018-12-27T20:02:54.764Z,101594.98
2018-12-27T20:05:22.977Z,101594.98
2018-12-27T20:07:51.200Z,101586.42
2018-12-27T20:10:19.434Z,101588.44
2018-12-27T20:12:47.715Z,101577.14
2018-12-27T20:15:15.964Z,101583.47
2018-12-27T20:17:44.159Z,101590.78
2018-12-27T20:20:12.400Z,101583.95
2018-12-27T20:22:40.636Z,101584.61
2018-12-27T20:25:08.860Z,101583.73
2018-12-27T20:27:37.068Z,101592.41
2018-12-27T20:30:07.527Z,101587.96
2018-12-27T20:32:35.758Z,101595.13
2018-12-27T20:35:04.668Z,101598.87
2018-12-27T20:37:32.882Z,101595.79
2018-12-27T20:40:01.109Z,101601.59
2018-12-27T20:42:29.360Z,101603.97
2018-12-27T20:44:57.583Z,101599.48
2018-12-27T20:47:25.797Z,101605.47
2018-12-27T20:49:53.999Z,101607.67
2018-12-27T20:52:22.235Z,101603.23
2018-12-27T20:54:50.436Z,101600.14
2018-12-27T20:57:18.686Z,101601.12
2018-12-27T20:59:46.905Z,101600.63
2018-12-27T21:02:15.161Z,101597.03
2018-12-27T21:04:43.411Z,101596.05
2018-12-27T21:07:11.727Z,101597.55
2018-12-27T21:09:39.864Z,101604.37
2018-12-27T21:12:08.107Z,101612.03
2018-12-27T21:14:36.332Z,101604.37
2018-12-27T21:17:04.557Z,101613.52
2018-12-27T21:19:32.782Z,101610.66
2018-12-27T21:22:00.993Z,101605.83
2018-12-27T21:24:29.246Z,101606.70
2018-12-27T21:26:57.453Z,101615.77
2018-12-27T21:29:25.693Z,101606.70
2018-12-27T21:31:53.907Z,101615.38
2018-12-27T21:34:22.121Z,101610.93
2018-12-27T21:36:50.377Z,101616.02
2018-12-27T21:39:18.591Z,101618.23
2018-12-27T21:41:46.811Z,101613.30
2018-12-27T21:44:15.058Z,101609.20
2018-12-27T21:46:43.263Z,101608.33
2018-12-27T21:49:11.500Z,101599.28
2018-12-27T21:51:39.735Z,101594.70
2018-12-27T21:54:07.941Z,101596.20
2018-12-27T21:56:36.185Z,101596.55
2018-12-27T21:59:04.408Z,101593.47
2018-12-27T22:01:32.641Z,101587.53
2018-12-27T22:04:00.861Z,101581.20
2018-12-27T22:06:29.106Z,101583.92
2018-12-27T22:08:56.683Z,101578.12
2018-12-27T22:11:24.848Z,101565.85
2018-12-27T22:13:53.092Z,101563.97
2018-12-27T22:16:21.300Z,101558.30
2018-12-27T22:18:49.515Z,101557.41
2018-12-27T22:21:17.733Z,101561.50
2018-12-27T22:23:46.233Z,101567.83
2018-12-27T22:26:13.846Z,101561.89
2018-12-27T22:28:41.368Z,101568.45
2018-12-27T22:31:08.927Z,101564.36
2018-12-27T22:33:36.467Z,101559.44
2018-12-27T22:36:04.661Z,101564.36
2018-12-27T22:38:35.549Z,101569.11
2018-12-27T22:41:01.517Z,101569.46
2018-12-27T22:43:29.045Z,101570.34
2018-12-27T22:45:56.551Z,101563.66
2018-12-27T22:48:24.083Z,101556.31
2018-12-27T22:50:51.581Z,101562.64
2018-12-27T22:53:19.124Z,101561.77
2018-12-27T22:55:48.268Z,101564.50
2018-12-27T22:58:15.793Z,101567.75
2018-12-27T23:00:44.133Z,101563.78
2018-12-27T23:03:12.382Z,101561.55
2018-12-27T23:05:40.610Z,101559.97
2018-12-27T23:08:08.825Z,101564.05
2018-12-27T23:10:37.077Z,101561.69
2018-12-27T23:13:04.649Z,101564.54
2018-12-27T23:15:32.201Z,101564.19
2018-12-27T23:17:59.723Z,101562.08
2018-12-27T23:20:27.235Z,101549.68
2018-12-27T23:22:54.817Z,101550.66
2018-12-27T23:25:22.317Z,101547.44
2018-12-27T23:27:49.817Z,101548.94
2018-12-27T23:30:17.401Z,101548.58
2018-12-27T23:32:44.907Z,101538.16
2018-12-27T23:35:12.465Z,101545.47
2018-12-27T23:37:39.975Z,101545.47
2018-12-27T23:40:07.465Z,101550.43
2018-12-27T23:42:35.001Z,101551.44
2018-12-27T23:45:02.543Z,101555.88
2018-12-27T23:47:30.079Z,101551.44
2018-12-27T23:49:57.626Z,101550.08
2018-12-27T23:52:25.196Z,101546.97
2018-12-27T23:54:52.714Z,101547.23
2018-12-27T23:57:20.873Z,101551.31
2018-12-27T23:59:48.436Z,101555.92
